Time;durP1;ratioP1;P1;durP2;ratioP2;P2;SDS_P1;SDS_P2;PMS_P1;PMS_P2;Temp;Humidity;BMP_temperature;BMP_pressure;BME280_temperature;BME280_humidity;BME280_pressure;Samples;Min_cycle;Max_cycle;Signal;HPM_P1;HPM_P2
2021/03/17 00:00:35;;;;;;;0.20;0.20;;;6.20;99.90;;;;;;5021199;28;20194;-85
2021/03/17 00:03:01;;;;;;;0.20;0.20;;;6.20;99.90;;;;;;5032955;28;20209;-85
2021/03/17 00:05:32;;;;;;;0.40;0.30;;;6.30;99.90;;;;;;5023100;28;20332;-84
2021/03/17 00:07:58;;;;;;;0.30;0.30;;;6.30;99.90;;;;;;5022715;28;20299;-84
2021/03/17 00:10:27;;;;;;;3.80;0.60;;;6.20;99.90;;;;;;5031262;28;20215;-85
2021/03/17 00:12:54;;;;;;;0.47;0.47;;;6.10;99.90;;;;;;5016919;28;20206;-86
2021/03/17 00:15:25;;;;;;;0.50;0.50;;;6.00;99.90;;;;;;5014710;28;20179;-85
2021/03/17 00:17:51;;;;;;;0.73;0.50;;;6.00;99.90;;;;;;5030881;28;20217;-84
2021/03/17 00:20:17;;;;;;;0.50;0.50;;;6.00;99.90;;;;;;5025797;28;20708;-85
2021/03/17 00:22:43;;;;;;;1.13;0.40;;;5.90;99.90;;;;;;5024021;28;20180;-85
2021/03/17 00:25:09;;;;;;;1.20;0.53;;;6.00;99.90;;;;;;5014256;28;20193;-84
2021/03/17 00:27:35;;;;;;;0.53;0.53;;;5.90;99.90;;;;;;5017368;28;20205;-83
2021/03/17 00:30:01;;;;;;;1.70;0.30;;;6.00;99.90;;;;;;5014779;28;20191;-85
2021/03/17 00:32:28;;;;;;;0.37;0.20;;;6.00;99.90;;;;;;5022852;28;20193;-85
2021/03/17 00:34:53;;;;;;;0.50;0.30;;;6.00;99.90;;;;;;5026574;28;20565;-85
2021/03/17 00:37:19;;;;;;;0.70;0.47;;;6.00;99.90;;;;;;5024577;28;20200;-85
2021/03/17 00:39:44;;;;;;;0.47;0.43;;;6.10;99.90;;;;;;5031341;28;20189;-84
2021/03/17 00:42:10;;;;;;;0.87;0.60;;;6.00;99.90;;;;;;5023307;28;20219;-84
2021/03/17 00:44:36;;;;;;;0.20;0.20;;;6.10;99.90;;;;;;5026515;28;20316;-85
2021/03/17 00:47:02;;;;;;;0.67;0.63;;;6.00;99.90;;;;;;5019456;28;20279;-84
2021/03/17 00:49:28;;;;;;;0.10;0.10;;;6.10;99.90;;;;;;5018596;28;20220;-84
2021/03/17 00:51:54;;;;;;;0.40;0.40;;;6.20;99.90;;;;;;5019582;28;20198;-85
2021/03/17 00:54:20;;;;;;;2.00;0.43;;;6.20;99.90;;;;;;5025382;28;20265;-84
2021/03/17 00:56:46;;;;;;;0.30;0.30;;;6.20;99.90;;;;;;5018045;28;20211;-85
2021/03/17 00:59:11;;;;;;;0.73;0.57;;;6.30;99.90;;;;;;5024352;28;20251;-85
2021/03/17 01:01:37;;;;;;;0.07;0.07;;;6.20;99.90;;;;;;5022892;28;20182;-85
2021/03/17 01:04:02;;;;;;;0.70;0.60;;;6.30;99.90;;;;;;5024170;28;20684;-84
2021/03/17 01:06:28;;;;;;;0.63;0.60;;;6.20;99.90;;;;;;5022295;28;20240;-85
2021/03/17 01:08:53;;;;;;;0.40;0.40;;;6.10;99.90;;;;;;5023713;28;20595;-84
2021/03/17 01:11:19;;;;;;;0.73;0.40;;;5.90;99.90;;;;;;5024880;28;20186;-84
2021/03/17 01:13:45;;;;;;;0.60;0.60;;;6.10;99.90;;;;;;5037190;28;20263;-85
2021/03/17 01:16:10;;;;;;;0.57;0.57;;;5.90;99.90;;;;;;5023671;28;20189;-85
2021/03/17 01:18:36;;;;;;;1.70;0.73;;;5.90;99.90;;;;;;5034266;28;20202;-84
2021/03/17 01:21:02;;;;;;;0.27;0.27;;;5.90;99.90;;;;;;5031646;28;20189;-84
2021/03/17 01:23:28;;;;;;;0.63;0.50;;;5.80;99.90;;;;;;5032436;28;20669;-85
2021/03/17 01:25:53;;;;;;;2.37;0.30;;;5.90;99.90;;;;;;5016936;28;20190;-85
2021/03/17 01:28:19;;;;;;;0.83;0.60;;;5.70;99.90;;;;;;5026155;28;20213;-85
2021/03/17 01:30:55;;;;;;;0.37;0.37;;;5.50;99.90;;;;;;5021305;28;20619;-85
2021/03/17 01:33:24;;;;;;;0.83;0.40;;;5.60;99.90;;;;;;5014286;28;20190;-85
2021/03/17 01:35:50;;;;;;;1.27;0.33;;;5.70;99.90;;;;;;5033144;28;20281;-83
2021/03/17 01:38:16;;;;;;;0.47;0.43;;;5.70;99.90;;;;;;5026704;28;20256;-85
2021/03/17 01:40:43;;;;;;;0.93;0.53;;;5.70;99.90;;;;;;5030015;28;20185;-85
2021/03/17 01:43:10;;;;;;;0.83;0.83;;;5.70;99.90;;;;;;5017667;28;20224;-84
2021/03/17 01:45:35;;;;;;;0.37;0.30;;;5.80;99.90;;;;;;5030702;28;20199;-85
2021/03/17 01:48:01;;;;;;;0.67;0.57;;;5.50;99.90;;;;;;5020971;28;20207;-84
2021/03/17 01:50:29;;;;;;;0.10;0.10;;;5.40;99.90;;;;;;5014758;28;20198;-84
2021/03/17 01:52:58;;;;;;;0.27;0.27;;;5.40;99.90;;;;;;5024261;28;20194;-84
2021/03/17 01:55:24;;;;;;;2.30;0.50;;;5.30;99.90;;;;;;5016559;28;20195;-84
2021/03/17 01:57:50;;;;;;;0.33;0.33;;;5.40;99.90;;;;;;5017484;28;20206;-85
2021/03/17 02:00:18;;;;;;;0.40;0.40;;;5.40;99.90;;;;;;5018845;28;20526;-85
2021/03/17 02:02:50;;;;;;;0.13;0.13;;;5.40;99.90;;;;;;5014551;28;20191;-85
2021/03/17 02:05:20;;;;;;;0.20;0.20;;;5.40;99.90;;;;;;5027955;28;20660;-86
2021/03/17 02:07:45;;;;;;;0.67;0.67;;;5.30;99.90;;;;;;5032714;28;20700;-84
2021/03/17 02:10:14;;;;;;;0.30;0.30;;;5.20;99.90;;;;;;5015426;28;20186;-84
2021/03/17 02:13:01;;;;;;;0.73;0.50;;;5.10;99.90;;;;;;5017836;28;20195;-84
2021/03/17 02:15:52;;;;;;;0.63;0.30;;;5.10;99.90;;;;;;5032101;28;20182;-84
2021/03/17 02:18:34;;;;;;;0.30;0.30;;;5.10;99.90;;;;;;5019588;28;20218;-84
2021/03/17 02:21:18;;;;;;;0.27;0.27;;;5.10;99.90;;;;;;5028609;28;20605;-84
2021/03/17 02:23:52;;;;;;;0.43;0.43;;;5.30;99.90;;;;;;5027518;28;20190;-84
2021/03/17 02:26:38;;;;;;;0.20;0.20;;;5.30;99.90;;;;;;5022196;28;20209;-84
2021/03/17 02:29:41;;;;;;;0.40;0.20;;;5.30;99.90;;;;;;5031719;28;20206;-84
2021/03/17 02:32:27;;;;;;;0.60;0.50;;;5.00;99.90;;;;;;5028544;28;20222;-84
2021/03/17 02:34:57;;;;;;;0.13;0.13;;;5.10;99.90;;;;;;5027915;28;20187;-84
2021/03/17 02:37:24;;;;;;;0.10;0.10;;;5.10;99.90;;;;;;5025877;28;20664;-85
2021/03/17 02:39:58;;;;;;;0.20;0.20;;;5.20;99.90;;;;;;5020858;28;20270;-84
2021/03/17 02:42:47;;;;;;;0.27;0.27;;;5.10;99.90;;;;;;5025836;28;20336;-85
2021/03/17 02:45:17;;;;;;;0.10;0.10;;;5.00;99.90;;;;;;5015020;28;20327;-84
2021/03/17 02:48:04;;;;;;;0.60;0.60;;;5.00;99.90;;;;;;5027500;28;20243;-84
2021/03/17 02:50:36;;;;;;;1.50;0.50;;;4.90;99.90;;;;;;5033500;28;20197;-84
2021/03/17 02:53:03;;;;;;;0.50;0.40;;;4.80;99.90;;;;;;5018115;28;20186;-84
2021/03/17 02:55:33;;;;;;;0.43;0.37;;;4.80;99.90;;;;;;5015004;28;20218;-83
2021/03/17 02:58:00;;;;;;;0.67;0.20;;;4.80;99.90;;;;;;5029556;28;20298;-83
2021/03/17 03:00:28;;;;;;;0.73;0.37;;;4.80;99.90;;;;;;5005381;28;20212;-84
2021/03/17 03:02:56;;;;;;;0.17;0.17;;;4.80;99.90;;;;;;5020441;28;20189;-85
2021/03/17 03:05:24;;;;;;;0.40;0.40;;;5.00;99.90;;;;;;5029063;28;20196;-85
2021/03/17 03:07:53;;;;;;;0.20;0.20;;;5.10;99.90;;;;;;5025533;28;20234;-83
2021/03/17 03:10:22;;;;;;;0.40;0.37;;;5.10;99.90;;;;;;5027508;28;20193;-85
2021/03/17 03:12:49;;;;;;;0.20;0.20;;;5.20;99.90;;;;;;5027334;28;20192;-85
2021/03/17 03:15:17;;;;;;;0.13;0.13;;;5.20;99.90;;;;;;5028069;28;20179;-84
2021/03/17 03:17:45;;;;;;;0.17;0.17;;;5.30;99.90;;;;;;5022541;28;20211;-84
2021/03/17 03:20:13;;;;;;;0.37;0.10;;;5.40;99.90;;;;;;5018184;28;20275;-84
2021/03/17 03:22:43;;;;;;;0.10;0.10;;;5.30;99.90;;;;;;5026488;28;20186;-85
2021/03/17 03:25:09;;;;;;;0.37;0.20;;;5.30;99.90;;;;;;5018866;28;20202;-85
2021/03/17 03:27:36;;;;;;;0.20;0.20;;;5.10;99.90;;;;;;5030824;28;20280;-85
2021/03/17 03:30:11;;;;;;;1.03;0.63;;;5.10;99.90;;;;;;5023212;28;20198;-84
2021/03/17 03:32:37;;;;;;;0.87;0.37;;;5.20;99.90;;;;;;5019740;28;20263;-84
2021/03/17 03:35:08;;;;;;;1.03;0.30;;;5.30;99.90;;;;;;5030240;28;20205;-84
2021/03/17 03:37:35;;;;;;;0.30;0.30;;;5.30;99.90;;;;;;5024609;28;20214;-84
2021/03/17 03:40:05;;;;;;;1.10;0.40;;;5.30;99.90;;;;;;5023117;28;20183;-84
2021/03/17 03:42:30;;;;;;;0.30;0.27;;;5.50;99.90;;;;;;5033999;28;20188;-84
2021/03/17 03:44:56;;;;;;;1.00;0.10;;;5.40;99.90;;;;;;5023088;28;20184;-85
2021/03/17 03:47:21;;;;;;;0.13;0.13;;;5.40;99.90;;;;;;5024793;28;20192;-85
2021/03/17 03:49:47;;;;;;;1.10;0.10;;;5.60;99.90;;;;;;5017747;28;20244;-85
2021/03/17 03:52:15;;;;;;;0.20;0.20;;;5.50;99.90;;;;;;5031765;28;20218;-84
2021/03/17 03:55:12;;;;;;;0.10;0.10;;;5.50;99.90;;;;;;5017841;28;20201;-84
2021/03/17 03:57:50;;;;;;;0.23;0.20;;;5.60;99.90;;;;;;5007311;28;20571;-84
2021/03/17 04:00:26;;;;;;;0.20;0.20;;;5.60;99.90;;;;;;5014807;28;20221;-84
2021/03/17 04:02:53;;;;;;;0.20;0.20;;;5.50;99.90;;;;;;5021477;28;20190;-84
2021/03/17 04:05:35;;;;;;;0.77;0.77;;;5.60;99.90;;;;;;5004955;28;20255;-85
2021/03/17 04:08:06;;;;;;;0.63;0.63;;;5.50;99.90;;;;;;5019966;28;20215;-85
2021/03/17 04:10:33;;;;;;;0.30;0.30;;;5.40;99.90;;;;;;5033160;28;20198;-83
2021/03/17 04:13:03;;;;;;;0.43;0.43;;;5.40;99.90;;;;;;5032505;28;20200;-85
2021/03/17 04:15:28;;;;;;;0.80;0.60;;;5.40;99.90;;;;;;5019591;28;20721;-85
2021/03/17 04:18:14;;;;;;;0.43;0.30;;;5.50;99.90;;;;;;5034967;28;20256;-85
2021/03/17 04:20:49;;;;;;;0.17;0.17;;;5.30;99.90;;;;;;5030087;28;20766;-85
2021/03/17 04:23:16;;;;;;;0.17;0.17;;;5.40;99.90;;;;;;5021794;28;20169;-85
2021/03/17 04:25:45;;;;;;;0.77;0.43;;;5.30;99.90;;;;;;5018470;28;20600;-84
2021/03/17 04:28:15;;;;;;;0.23;0.23;;;5.20;99.90;;;;;;5030490;28;20262;-85
2021/03/17 04:30:42;;;;;;;0.70;0.70;;;5.30;99.90;;;;;;5023091;28;20201;-85
2021/03/17 04:33:09;;;;;;;0.30;0.30;;;5.20;99.90;;;;;;5017378;28;20559;-84
2021/03/17 04:35:35;;;;;;;0.33;0.23;;;5.20;99.90;;;;;;5023802;28;20195;-84
2021/03/17 04:38:01;;;;;;;0.97;0.43;;;5.30;99.90;;;;;;5026355;28;20296;-85
2021/03/17 04:40:28;;;;;;;0.10;0.10;;;5.30;99.90;;;;;;5025773;28;20665;-85
2021/03/17 04:42:56;;;;;;;0.67;0.67;;;5.30;99.90;;;;;;5030963;28;20185;-85
2021/03/17 04:45:21;;;;;;;0.10;0.10;;;5.30;99.90;;;;;;5004353;28;20185;-85
2021/03/17 04:47:52;;;;;;;0.10;0.10;;;5.20;99.90;;;;;;5014361;28;20242;-85
2021/03/17 04:50:19;;;;;;;0.57;0.57;;;5.10;99.90;;;;;;5020981;28;20222;-85
2021/03/17 04:52:45;;;;;;;0.37;0.37;;;5.00;99.90;;;;;;5015786;28;20190;-86
2021/03/17 04:55:15;;;;;;;0.13;0.13;;;5.00;99.90;;;;;;5027596;28;20190;-85
2021/03/17 04:57:43;;;;;;;0.20;0.20;;;4.90;99.90;;;;;;5018429;28;20221;-85
2021/03/17 05:00:11;;;;;;;0.27;0.27;;;5.10;99.90;;;;;;5018771;28;20209;-85
2021/03/17 05:02:41;;;;;;;1.80;0.27;;;5.10;99.90;;;;;;5014764;28;20183;-84
2021/03/17 05:05:09;;;;;;;0.10;0.10;;;5.20;99.90;;;;;;5021789;28;20187;-84
2021/03/17 05:07:38;;;;;;;0.50;0.50;;;5.30;99.90;;;;;;5020215;28;20697;-84
2021/03/17 05:10:05;;;;;;;0.37;0.37;;;5.20;99.90;;;;;;5025464;28;21853;-85
2021/03/17 05:12:31;;;;;;;0.27;0.27;;;5.20;99.90;;;;;;5029756;28;20190;-84
2021/03/17 05:14:59;;;;;;;0.17;0.17;;;5.10;99.90;;;;;;5026759;28;20187;-85
2021/03/17 05:17:26;;;;;;;0.10;0.10;;;5.10;99.90;;;;;;5022555;28;20206;-84
2021/03/17 05:19:52;;;;;;;0.63;0.50;;;5.00;99.90;;;;;;5030400;28;20175;-84
2021/03/17 05:22:18;;;;;;;0.77;0.77;;;4.90;99.90;;;;;;5025488;28;20582;-84
2021/03/17 05:24:44;;;;;;;0.67;0.67;;;4.70;99.90;;;;;;5025318;28;20198;-85
2021/03/17 05:27:15;;;;;;;0.37;0.37;;;4.70;99.90;;;;;;5027602;28;20182;-85
2021/03/17 05:29:42;;;;;;;0.43;0.43;;;4.60;99.90;;;;;;5023816;28;20539;-86
2021/03/17 05:32:08;;;;;;;1.63;0.57;;;4.60;99.90;;;;;;5016086;28;20289;-85
2021/03/17 05:34:35;;;;;;;0.40;0.30;;;4.60;99.90;;;;;;5020226;28;20559;-85
2021/03/17 05:37:03;;;;;;;2.63;0.57;;;4.60;99.90;;;;;;5012282;28;20704;-87
2021/03/17 05:39:28;;;;;;;0.10;0.10;;;4.60;99.90;;;;;;5014539;28;20215;-85
2021/03/17 05:41:54;;;;;;;0.10;0.10;;;4.60;99.90;;;;;;5016011;28;20201;-85
2021/03/17 05:44:21;;;;;;;0.23;0.10;;;4.70;99.90;;;;;;5015019;28;20225;-83
2021/03/17 05:46:49;;;;;;;0.37;0.37;;;4.80;99.90;;;;;;5029754;28;20213;-85
2021/03/17 05:49:16;;;;;;;0.83;0.67;;;4.70;99.90;;;;;;5022272;28;20237;-83
2021/03/17 05:51:42;;;;;;;1.13;0.50;;;4.60;99.90;;;;;;5019141;28;20201;-84
2021/03/17 05:54:10;;;;;;;1.43;0.50;;;4.40;99.90;;;;;;5022668;28;20194;-84
2021/03/17 05:56:36;;;;;;;0.50;0.27;;;4.40;99.90;;;;;;5015267;28;20293;-84
2021/03/17 05:59:02;;;;;;;0.10;0.10;;;4.40;99.90;;;;;;5033692;28;20220;-83
2021/03/17 06:01:28;;;;;;;1.30;0.30;;;4.60;99.90;;;;;;5019496;28;20295;-84
2021/03/17 06:03:55;;;;;;;0.87;0.50;;;4.80;99.90;;;;;;5025534;28;20268;-84
2021/03/17 06:06:22;;;;;;;0.40;0.40;;;4.80;99.90;;;;;;5015865;28;20186;-84
2021/03/17 06:08:48;;;;;;;0.20;0.20;;;4.90;99.90;;;;;;5008220;28;20241;-84
2021/03/17 06:11:15;;;;;;;0.50;0.40;;;4.90;99.90;;;;;;5012554;28;20177;-84
2021/03/17 06:13:47;;;;;;;0.70;0.70;;;5.00;99.90;;;;;;5027513;28;20599;-83
2021/03/17 06:16:15;;;;;;;0.93;0.93;;;5.20;99.90;;;;;;5022872;28;20190;-84
2021/03/17 06:18:49;;;;;;;0.30;0.30;;;5.10;99.90;;;;;;5014850;28;20215;-83
2021/03/17 06:21:18;;;;;;;0.40;0.30;;;5.20;99.90;;;;;;5019356;28;20585;-84
2021/03/17 06:23:45;;;;;;;0.10;0.10;;;5.30;99.90;;;;;;5016739;28;20179;-84
2021/03/17 06:26:11;;;;;;;0.00;0.00;;;5.40;99.90;;;;;;5008717;28;20206;-83
2021/03/17 06:28:39;;;;;;;0.33;0.33;;;5.50;99.90;;;;;;5011644;28;20220;-81
2021/03/17 06:31:05;;;;;;;6.27;5.70;;;5.60;99.90;;;;;;5010697;28;20198;-82
2021/03/17 06:33:31;;;;;;;0.33;0.33;;;5.70;99.90;;;;;;5017518;28;20272;-82
2021/03/17 06:36:20;;;;;;;0.30;0.30;;;5.80;99.90;;;;;;5013773;28;20546;-83
2021/03/17 06:38:47;;;;;;;0.10;0.10;;;5.90;99.90;;;;;;5011385;28;20288;-82
2021/03/17 06:41:13;;;;;;;0.60;0.13;;;6.00;99.90;;;;;;5020885;28;20213;-83
2021/03/17 06:43:41;;;;;;;0.53;0.30;;;6.10;99.90;;;;;;5003411;28;20190;-82
2021/03/17 06:46:09;;;;;;;0.20;0.20;;;6.10;99.90;;;;;;5014399;28;20237;-85
2021/03/17 06:48:38;;;;;;;0.10;0.10;;;6.30;99.90;;;;;;5030100;28;20302;-84
2021/03/17 06:51:03;;;;;;;0.13;0.13;;;6.30;99.90;;;;;;5024756;28;20187;-84
2021/03/17 06:53:42;;;;;;;0.53;0.53;;;6.30;99.90;;;;;;5013614;28;20545;-85
2021/03/17 06:56:18;;;;;;;0.10;0.10;;;6.30;99.90;;;;;;5015093;28;20201;-84
2021/03/17 06:58:58;;;;;;;0.20;0.20;;;6.30;99.90;;;;;;5016411;28;20630;-85
2021/03/17 07:01:50;;;;;;;0.30;0.30;;;6.40;99.90;;;;;;5015680;28;20277;-85
2021/03/17 07:04:25;;;;;;;0.20;0.20;;;6.30;99.90;;;;;;5012948;28;20191;-85
2021/03/17 07:07:01;;;;;;;1.30;0.43;;;6.30;99.90;;;;;;5017976;28;20662;-84
2021/03/17 07:09:29;;;;;;;0.63;0.63;;;6.40;99.90;;;;;;5015732;28;20681;-84
2021/03/17 07:12:09;;;;;;;0.30;0.30;;;6.40;99.90;;;;;;5016547;28;20210;-85
2021/03/17 07:14:43;;;;;;;0.37;0.30;;;6.50;99.90;;;;;;5022088;28;20205;-85
2021/03/17 07:17:32;;;;;;;0.47;0.40;;;6.50;99.90;;;;;;5012472;28;20206;-85
2021/03/17 07:19:58;;;;;;;0.60;0.27;;;6.20;99.90;;;;;;5014499;28;20678;-86
2021/03/17 07:22:31;;;;;;;0.43;0.43;;;6.10;99.90;;;;;;5017730;28;20214;-85
2021/03/17 07:25:03;;;;;;;0.10;0.10;;;6.10;99.90;;;;;;5011882;28;20553;-86
2021/03/17 07:27:31;;;;;;;0.57;0.53;;;6.10;99.90;;;;;;5015215;28;20225;-85
2021/03/17 07:30:00;;;;;;;0.20;0.20;;;6.00;99.90;;;;;;5006904;28;20197;-86
2021/03/17 07:32:28;;;;;;;0.40;0.40;;;5.80;99.90;;;;;;5016003;28;20190;-84
2021/03/17 07:34:54;;;;;;;1.27;0.33;;;5.80;99.90;;;;;;5018744;28;20184;-83
2021/03/17 07:37:29;;;;;;;0.77;0.77;;;5.20;99.90;;;;;;5015958;28;20206;-83
2021/03/17 07:39:57;;;;;;;0.57;0.50;;;5.30;99.90;;;;;;5024311;28;20182;-84
2021/03/17 07:42:24;;;;;;;0.60;0.60;;;5.30;99.90;;;;;;5021251;28;20208;-83
2021/03/17 07:44:50;;;;;;;0.30;0.30;;;5.40;99.90;;;;;;5026039;28;20268;-83
2021/03/17 07:47:16;;;;;;;0.37;0.23;;;5.20;99.90;;;;;;5026368;28;20192;-82
2021/03/17 07:49:44;;;;;;;0.93;0.40;;;5.40;99.90;;;;;;5026241;28;20732;-82
2021/03/17 07:52:22;;;;;;;0.53;0.23;;;5.50;99.90;;;;;;5020509;28;20566;-83
2021/03/17 07:54:52;;;;;;;0.67;0.67;;;5.40;99.90;;;;;;5005332;28;20198;-82
2021/03/17 07:57:20;;;;;;;0.13;0.13;;;5.70;99.90;;;;;;5016125;28;20199;-82
2021/03/17 07:59:47;;;;;;;0.27;0.27;;;5.60;99.90;;;;;;5023523;28;20241;-84
2021/03/17 08:02:13;;;;;;;0.33;0.33;;;5.60;99.90;;;;;;5025702;28;20189;-83
2021/03/17 08:04:39;;;;;;;0.47;0.20;;;6.10;99.90;;;;;;5028234;28;20186;-83
2021/03/17 08:07:05;;;;;;;0.00;0.00;;;6.30;99.90;;;;;;5019443;28;20707;-84
2021/03/17 08:09:33;;;;;;;1.00;0.70;;;6.50;99.90;;;;;;5011484;28;20224;-83
2021/03/17 08:12:08;;;;;;;1.03;0.20;;;6.70;99.90;;;;;;5020273;28;20340;-84
2021/03/17 08:14:35;;;;;;;0.20;0.20;;;6.70;99.90;;;;;;5018160;28;20613;-82
2021/03/17 08:17:01;;;;;;;1.33;0.73;;;6.90;99.90;;;;;;5018305;28;20849;-86
2021/03/17 08:19:30;;;;;;;0.40;0.40;;;7.00;99.90;;;;;;5021100;28;20190;-85
2021/03/17 08:22:04;;;;;;;0.37;0.37;;;7.10;99.90;;;;;;5027972;28;20295;-85
2021/03/17 08:24:30;;;;;;;0.57;0.57;;;7.00;99.90;;;;;;5021121;28;20182;-85
2021/03/17 08:26:57;;;;;;;0.10;0.10;;;6.90;99.90;;;;;;5027849;28;20557;-85
2021/03/17 08:29:23;;;;;;;0.30;0.30;;;7.10;99.90;;;;;;5031358;28;20225;-84
2021/03/17 08:31:51;;;;;;;0.43;0.13;;;7.20;99.90;;;;;;5018125;28;20199;-84
2021/03/17 08:34:19;;;;;;;0.10;0.10;;;7.20;99.90;;;;;;5025031;28;20184;-83
2021/03/17 08:36:46;;;;;;;0.60;0.60;;;7.20;99.90;;;;;;5019942;28;20214;-84
2021/03/17 08:39:32;;;;;;;3.07;0.77;;;7.00;99.90;;;;;;5021341;28;20241;-84
2021/03/17 08:42:09;;;;;;;0.20;0.20;;;7.10;99.90;;;;;;5008288;28;20183;-85
2021/03/17 08:44:38;;;;;;;0.10;0.10;;;7.20;99.90;;;;;;5022058;28;20577;-83
2021/03/17 08:47:21;;;;;;;1.00;0.77;;;7.20;99.90;;;;;;5018631;28;20281;-85
2021/03/17 08:49:52;;;;;;;0.53;0.40;;;7.40;99.90;;;;;;5028033;28;20221;-84
2021/03/17 08:52:18;;;;;;;0.30;0.30;;;7.10;99.90;;;;;;5015743;28;20600;-83
2021/03/17 08:54:49;;;;;;;0.47;0.47;;;7.10;99.90;;;;;;5028084;28;20182;-83
2021/03/17 08:57:16;;;;;;;0.20;0.20;;;7.20;99.90;;;;;;5019497;28;20575;-84
2021/03/17 08:59:46;;;;;;;0.20;0.20;;;7.20;99.90;;;;;;5021578;28;20184;-84
2021/03/17 09:02:26;;;;;;;0.00;0.00;;;7.20;99.90;;;;;;5021283;28;20230;-84
2021/03/17 09:04:52;;;;;;;1.40;0.37;;;7.20;99.90;;;;;;5018055;28;20186;-83
2021/03/17 09:07:20;;;;;;;0.33;0.33;;;7.10;99.90;;;;;;5016866;28;20183;-84
2021/03/17 09:09:48;;;;;;;0.20;0.20;;;6.90;99.90;;;;;;5021941;28;20285;-84
2021/03/17 09:12:14;;;;;;;0.20;0.20;;;6.80;99.90;;;;;;5038076;28;20186;-84
2021/03/17 09:14:40;;;;;;;0.20;0.20;;;6.40;99.90;;;;;;5026667;28;20187;-83
2021/03/17 09:17:10;;;;;;;0.13;0.13;;;6.30;99.90;;;;;;5013209;28;20659;-84
2021/03/17 09:19:55;;;;;;;0.10;0.10;;;6.60;99.90;;;;;;5022641;28;20202;-85
2021/03/17 09:22:47;;;;;;;0.50;0.50;;;7.10;99.90;;;;;;5023810;28;20175;-84
2021/03/17 09:25:16;;;;;;;0.37;0.30;;;7.10;99.90;;;;;;5021993;28;20203;-84
2021/03/17 09:27:50;;;;;;;1.80;0.33;;;7.10;99.90;;;;;;5029558;28;20252;-84
2021/03/17 09:30:17;;;;;;;1.93;0.37;;;6.90;99.90;;;;;;5021867;28;20203;-85
2021/03/17 09:32:43;;;;;;;0.40;0.40;;;7.50;99.90;;;;;;5024992;28;20179;-84
2021/03/17 09:35:15;;;;;;;0.10;0.10;;;8.20;99.90;;;;;;5023854;28;20182;-84
2021/03/17 09:37:41;;;;;;;0.10;0.10;;;9.10;99.90;;;;;;5021591;28;20215;-84
2021/03/17 09:40:09;;;;;;;1.10;0.40;;;9.40;99.90;;;;;;5033641;28;20602;-84
2021/03/17 09:42:36;;;;;;;0.30;0.30;;;9.40;99.90;;;;;;5019843;28;20186;-84
2021/03/17 09:45:03;;;;;;;0.30;0.30;;;9.50;99.90;;;;;;5031243;28;20210;-84
2021/03/17 09:47:31;;;;;;;0.23;0.23;;;9.60;99.90;;;;;;5025834;28;20191;-85
2021/03/17 09:49:57;;;;;;;0.43;0.27;;;9.90;99.90;;;;;;5020639;28;20187;-84
2021/03/17 09:52:24;;;;;;;0.10;0.10;;;10.00;99.90;;;;;;5034188;28;20194;-84
2021/03/17 09:54:50;;;;;;;0.13;0.13;;;9.80;99.90;;;;;;5027907;28;21078;-84
2021/03/17 09:57:16;;;;;;;0.20;0.20;;;9.40;99.90;;;;;;5018016;28;20242;-83
2021/03/17 09:59:43;;;;;;;0.00;0.00;;;8.80;99.90;;;;;;5026330;28;20184;-84
2021/03/17 10:02:18;;;;;;;0.10;0.10;;;8.00;99.90;;;;;;5028262;28;20263;-85
2021/03/17 10:04:47;;;;;;;0.10;0.10;;;7.70;99.90;;;;;;5032517;28;20187;-84
2021/03/17 10:07:16;;;;;;;0.20;0.20;;;7.80;99.90;;;;;;5027424;28;20275;-84
2021/03/17 10:09:43;;;;;;;0.00;0.00;;;8.00;99.90;;;;;;5021540;28;20197;-84
2021/03/17 10:12:15;;;;;;;0.30;0.30;;;7.90;99.90;;;;;;5031451;28;20191;-83
2021/03/17 10:14:45;;;;;;;0.97;0.20;;;8.10;99.90;;;;;;5035718;28;20251;-84
2021/03/17 10:17:12;;;;;;;0.10;0.10;;;8.00;99.90;;;;;;5023951;28;20328;-84
2021/03/17 10:19:39;;;;;;;0.10;0.10;;;8.30;99.90;;;;;;5034306;28;20183;-84
2021/03/17 10:22:05;;;;;;;0.10;0.10;;;8.00;99.90;;;;;;5023096;28;20180;-84
2021/03/17 10:24:41;;;;;;;1.60;0.60;;;8.30;99.90;;;;;;5019003;28;20186;-85
2021/03/17 10:27:20;;;;;;;0.37;0.27;;;8.30;99.90;;;;;;5026937;28;20182;-85
2021/03/17 10:29:48;;;;;;;0.20;0.20;;;8.20;99.90;;;;;;5035859;28;20190;-84
2021/03/17 10:32:17;;;;;;;0.33;0.33;;;7.80;99.90;;;;;;5015683;28;20191;-84
2021/03/17 10:34:43;;;;;;;0.13;0.13;;;7.30;99.90;;;;;;5026525;28;20187;-83
2021/03/17 10:37:14;;;;;;;0.20;0.20;;;7.10;99.90;;;;;;5019737;28;20252;-84
2021/03/17 10:39:40;;;;;;;0.20;0.20;;;6.80;99.90;;;;;;5019175;28;20182;-84
2021/03/17 10:42:17;;;;;;;0.00;0.00;;;6.20;99.90;;;;;;5027395;28;20189;-83
2021/03/17 10:44:42;;;;;;;0.53;0.40;;;6.10;99.90;;;;;;5023194;28;20235;-84
2021/03/17 10:47:09;;;;;;;0.10;0.10;;;6.30;99.90;;;;;;5022063;28;20190;-84
2021/03/17 10:49:43;;;;;;;0.17;0.17;;;6.80;99.90;;;;;;5008161;28;20226;-83
2021/03/17 10:52:08;;;;;;;0.30;0.30;;;7.20;99.90;;;;;;5006263;28;20191;-85
2021/03/17 10:54:35;;;;;;;0.10;0.10;;;6.90;99.90;;;;;;5010666;28;20213;-85
2021/03/17 10:57:02;;;;;;;0.00;0.00;;;6.50;99.90;;;;;;5022815;28;20621;-84
2021/03/17 10:59:34;;;;;;;0.10;0.10;;;6.20;99.90;;;;;;5013221;28;20580;-83
2021/03/17 11:02:34;;;;;;;0.37;0.13;;;5.90;99.90;;;;;;5014966;28;20179;-83
2021/03/17 11:05:11;;;;;;;0.17;0.17;;;5.30;99.90;;;;;;5025126;28;20171;-83
2021/03/17 11:07:54;;;;;;;0.07;0.07;;;5.00;99.90;;;;;;5003546;28;20345;-85
2021/03/17 11:10:30;;;;;;;0.10;0.10;;;5.30;99.90;;;;;;5019495;28;20185;-84
2021/03/17 11:12:56;;;;;;;0.20;0.20;;;5.30;99.90;;;;;;5023615;28;20204;-83
2021/03/17 11:15:30;;;;;;;0.10;0.10;;;5.40;99.90;;;;;;5023054;28;20201;-83
2021/03/17 11:17:57;;;;;;;0.00;0.00;;;5.70;99.90;;;;;;5026796;28;20218;-84
2021/03/17 11:20:24;;;;;;;0.00;0.00;;;5.90;99.90;;;;;;5011993;28;20199;-84
2021/03/17 11:22:49;;;;;;;0.10;0.10;;;6.00;99.90;;;;;;5023219;28;20194;-83
2021/03/17 11:25:15;;;;;;;0.10;0.10;;;5.80;99.90;;;;;;5015930;28;20686;-82
2021/03/17 11:27:42;;;;;;;0.00;0.00;;;6.00;99.90;;;;;;5018107;28;20222;-83
2021/03/17 11:30:11;;;;;;;0.10;0.10;;;6.10;99.90;;;;;;5027743;28;20205;-83
2021/03/17 11:32:37;;;;;;;0.20;0.10;;;6.30;99.90;;;;;;5024078;28;20190;-83
2021/03/17 11:35:06;;;;;;;0.00;0.00;;;6.50;99.90;;;;;;5033579;28;20731;-83
2021/03/17 11:37:33;;;;;;;0.03;0.03;;;6.60;99.90;;;;;;5016513;28;20195;-84
2021/03/17 11:39:59;;;;;;;0.10;0.10;;;6.90;99.90;;;;;;5007847;28;20175;-82
2021/03/17 11:42:24;;;;;;;0.00;0.00;;;7.30;99.90;;;;;;5013998;28;20185;-83
2021/03/17 11:44:50;;;;;;;0.20;0.20;;;7.20;99.90;;;;;;5012290;28;20182;-82
2021/03/17 11:47:17;;;;;;;0.00;0.00;;;7.40;99.90;;;;;;5012314;28;20727;-83
2021/03/17 11:49:42;;;;;;;0.07;0.07;;;7.60;99.90;;;;;;5023065;28;20601;-83
2021/03/17 11:52:08;;;;;;;0.10;0.10;;;7.10;99.90;;;;;;5016197;28;20174;-83
2021/03/17 11:54:34;;;;;;;0.40;0.20;;;6.90;99.90;;;;;;5024031;28;20584;-82
2021/03/17 11:57:00;;;;;;;0.10;0.10;;;7.20;99.90;;;;;;5017450;28;20210;-82
2021/03/17 11:59:27;;;;;;;0.20;0.20;;;6.80;99.90;;;;;;5011238;28;20846;-82
2021/03/17 12:01:52;;;;;;;0.03;0.03;;;7.20;99.90;;;;;;5015618;28;20716;-83
2021/03/17 12:04:18;;;;;;;0.10;0.10;;;7.50;99.90;;;;;;5017322;28;20179;-83
2021/03/17 12:06:44;;;;;;;0.37;0.30;;;7.50;99.90;;;;;;5023479;28;20190;-82
2021/03/17 12:09:10;;;;;;;0.10;0.10;;;7.60;99.90;;;;;;5027614;28;20203;-83
2021/03/17 12:11:35;;;;;;;1.23;0.20;;;7.60;99.90;;;;;;5027249;28;20262;-83
2021/03/17 12:14:03;;;;;;;0.20;0.20;;;7.50;99.90;;;;;;5018879;28;20186;-83
2021/03/17 12:16:29;;;;;;;0.10;0.10;;;7.70;99.90;;;;;;5018013;28;20206;-83
2021/03/17 12:18:54;;;;;;;0.00;0.00;;;7.80;99.90;;;;;;5013068;28;20214;-83
2021/03/17 12:21:20;;;;;;;0.20;0.20;;;7.50;99.90;;;;;;5010284;28;20185;-82
2021/03/17 12:23:47;;;;;;;0.10;0.10;;;7.50;99.90;;;;;;5019205;28;20183;-82
2021/03/17 12:26:13;;;;;;;0.10;0.10;;;7.50;99.90;;;;;;5009081;28;20187;-82
2021/03/17 12:28:39;;;;;;;0.10;0.10;;;6.80;99.90;;;;;;5031844;28;20292;-82
2021/03/17 12:31:05;;;;;;;0.10;0.10;;;6.70;99.90;;;;;;5018330;28;20238;-82
2021/03/17 12:33:31;;;;;;;0.10;0.10;;;7.10;99.90;;;;;;5032871;28;20189;-83
2021/03/17 12:35:57;;;;;;;0.13;0.13;;;7.20;99.90;;;;;;5036685;28;20245;-82
2021/03/17 12:38:22;;;;;;;0.10;0.10;;;7.60;99.90;;;;;;5020754;28;20214;-83
2021/03/17 12:40:48;;;;;;;0.10;0.10;;;7.80;99.90;;;;;;5023043;28;20214;-82
2021/03/17 12:43:14;;;;;;;0.10;0.10;;;7.60;99.90;;;;;;5018994;28;20249;-82
2021/03/17 12:45:42;;;;;;;0.03;0.03;;;7.80;99.90;;;;;;5017865;28;20187;-82
2021/03/17 12:48:09;;;;;;;0.33;0.33;;;7.90;99.90;;;;;;5012948;28;21909;-82
2021/03/17 12:50:34;;;;;;;0.10;0.10;;;8.10;99.90;;;;;;5021731;28;20190;-84
2021/03/17 12:53:00;;;;;;;0.03;0.03;;;8.00;99.90;;;;;;5023966;28;20198;-82
2021/03/17 12:55:25;;;;;;;1.70;1.03;;;7.70;99.90;;;;;;5014048;28;20617;-83
2021/03/17 12:57:51;;;;;;;0.40;0.37;;;7.30;99.90;;;;;;5019566;28;20721;-83
2021/03/17 13:00:19;;;;;;;0.10;0.10;;;7.40;99.90;;;;;;5023549;28;20242;-82
2021/03/17 13:02:45;;;;;;;0.10;0.10;;;7.70;99.90;;;;;;5020470;28;20183;-83
2021/03/17 13:05:12;;;;;;;0.00;0.00;;;7.80;99.90;;;;;;5023832;28;20188;-82
2021/03/17 13:07:38;;;;;;;0.63;0.40;;;8.00;99.90;;;;;;5014653;28;20213;-82